createdAt,value
2022-11-14T00:00:59.296Z,8.05
2022-11-14T00:03:25.768Z,7.97
2022-11-14T00:05:53.287Z,6.90
2022-11-14T00:08:27.408Z,7.30
2022-11-14T00:10:54.151Z,9.05
2022-11-14T00:13:21.045Z,7.20
2022-11-14T00:15:54.343Z,7.95
2022-11-14T00:18:22.545Z,7.80
2022-11-14T00:20:53.182Z,8.80
2022-11-14T00:23:21.147Z,7.65
2022-11-14T00:25:48.313Z,8.15
2022-11-14T00:28:14.817Z,7.28
2022-11-14T00:30:41.322Z,7.20
2022-11-14T00:33:07.740Z,7.35
2022-11-14T00:35:34.204Z,6.68
2022-11-14T00:38:00.682Z,6.88
2022-11-14T00:40:27.162Z,6.88
2022-11-14T00:42:53.682Z,7.13
2022-11-14T00:45:20.295Z,7.80
2022-11-14T00:47:46.726Z,7.55
2022-11-14T00:50:13.170Z,8.82
2022-11-14T00:52:39.571Z,8.05
2022-11-14T00:55:06.761Z,7.00
2022-11-14T00:57:33.185Z,7.50
2022-11-14T00:59:59.637Z,7.53
2022-11-14T01:02:26.063Z,6.65
2022-11-14T01:04:52.732Z,7.85
2022-11-14T01:07:19.198Z,7.95
2022-11-14T01:09:45.786Z,7.47
2022-11-14T01:12:12.285Z,7.53
2022-11-14T01:14:40.805Z,6.85
2022-11-14T01:17:07.576Z,7.00
2022-11-14T01:19:34.206Z,5.97
2022-11-14T01:22:05.920Z,6.60
2022-11-14T01:24:33.916Z,7.07
2022-11-14T01:27:01.024Z,7.72
2022-11-14T01:29:28.088Z,8.05
2022-11-14T01:31:54.704Z,7.90
2022-11-14T01:34:21.599Z,8.35
2022-11-14T01:36:48.063Z,9.40
2022-11-14T01:39:14.584Z,9.23
2022-11-14T01:41:41.077Z,8.25
2022-11-14T01:44:37.882Z,8.43
2022-11-14T01:47:05.116Z,7.40
2022-11-14T01:49:39.681Z,7.85
2022-11-14T01:52:16.029Z,8.40
2022-11-14T01:57:18.342Z,8.35
2022-11-14T01:59:51.888Z,7.70
2022-11-14T02:02:21.027Z,7.95
2022-11-14T02:04:53.742Z,9.52
2022-11-14T02:07:20.433Z,8.30
2022-11-14T02:09:48.801Z,8.98
2022-11-14T02:12:17.933Z,8.10
2022-11-14T02:14:47.514Z,8.20
2022-11-14T02:17:31.921Z,8.98
2022-11-14T02:20:11.246Z,7.30
2022-11-14T02:22:39.391Z,9.05
2022-11-14T02:25:07.071Z,8.18
2022-11-14T02:27:34.862Z,8.38
2022-11-14T02:30:11.314Z,8.65
2022-11-14T02:33:08.678Z,8.73
2022-11-14T02:35:24.311Z,7.80
2022-11-14T02:37:50.787Z,7.68
2022-11-14T02:40:17.394Z,8.30
2022-11-14T02:42:43.816Z,7.70
2022-11-14T02:45:12.106Z,7.90
2022-11-14T02:47:38.622Z,8.25
2022-11-14T02:50:05.533Z,8.02
2022-11-14T02:52:31.960Z,7.55
2022-11-14T02:54:58.450Z,8.00
2022-11-14T02:57:24.877Z,8.25
2022-11-14T02:59:52.317Z,8.23
2022-11-14T03:02:18.793Z,7.35
2022-11-14T03:04:45.292Z,7.25
2022-11-14T03:07:11.863Z,7.53
2022-11-14T03:09:38.368Z,6.97
2022-11-14T03:12:05.010Z,7.72
2022-11-14T03:14:31.990Z,7.30
2022-11-14T03:16:58.442Z,7.68
2022-11-14T03:19:24.930Z,7.13
2022-11-14T03:21:51.361Z,7.95
2022-11-14T03:24:17.883Z,7.78
2022-11-14T03:26:44.364Z,7.78
2022-11-14T03:29:10.818Z,6.93
2022-11-14T03:31:37.258Z,7.50
2022-11-14T03:34:03.772Z,7.85
2022-11-14T03:36:30.309Z,7.28
2022-11-14T03:39:07.133Z,7.75
2022-11-14T03:41:33.580Z,7.15
2022-11-14T03:44:00.064Z,7.55
2022-11-14T03:46:27.021Z,6.93
2022-11-14T03:48:53.511Z,7.63
2022-11-14T03:51:23.944Z,7.70
2022-11-14T03:53:50.364Z,7.78
2022-11-14T03:56:16.867Z,7.28
2022-11-14T03:58:43.322Z,7.63
2022-11-14T04:01:09.893Z,7.05
2022-11-14T04:03:36.406Z,6.82
2022-11-14T04:06:03.170Z,7.85
2022-11-14T04:08:30.075Z,9.45
2022-11-14T04:10:56.808Z,8.27
2022-11-14T04:13:24.383Z,8.75
2022-11-14T04:15:55.478Z,9.07
2022-11-14T04:18:22.242Z,9.07
2022-11-14T04:20:48.678Z,9.95
2022-11-14T04:23:15.120Z,8.40
2022-11-14T04:25:44.010Z,8.65
2022-11-14T04:28:10.434Z,7.80
2022-11-14T04:30:37.255Z,8.02
2022-11-14T04:33:03.964Z,8.13
2022-11-14T04:35:30.411Z,8.20
2022-11-14T04:37:56.828Z,7.50
2022-11-14T04:40:23.477Z,7.72
2022-11-14T04:42:49.919Z,7.22
2022-11-14T04:45:16.468Z,7.78
2022-11-14T04:47:43.103Z,8.40
2022-11-14T04:50:10.553Z,8.55
2022-11-14T04:52:37.175Z,7.85
2022-11-14T04:55:03.838Z,7.50
2022-11-14T04:57:30.310Z,7.57
2022-11-14T04:59:56.742Z,7.80
2022-11-14T05:02:23.275Z,6.72
2022-11-14T05:04:49.809Z,7.00
2022-11-14T05:07:18.426Z,7.10
2022-11-14T05:09:44.908Z,6.00
2022-11-14T05:12:11.354Z,7.45
2022-11-14T05:14:37.852Z,6.70
2022-11-14T05:17:04.279Z,6.05
2022-11-14T05:19:30.817Z,6.25
2022-11-14T05:21:57.485Z,5.78
2022-11-14T05:24:24.349Z,6.20
2022-11-14T05:26:50.813Z,6.72
2022-11-14T05:29:17.299Z,5.68
2022-11-14T05:31:44.118Z,5.30
2022-11-14T05:34:10.550Z,5.20
2022-11-14T05:36:37.005Z,6.38
2022-11-14T05:39:03.485Z,5.95
2022-11-14T05:41:29.909Z,5.72
2022-11-14T05:43:56.348Z,5.28
2022-11-14T05:46:22.848Z,5.70
2022-11-14T05:48:49.364Z,5.30
2022-11-14T05:51:15.881Z,6.13
2022-11-14T05:53:42.522Z,5.72
2022-11-14T05:56:12.118Z,6.10
2022-11-14T05:58:39.064Z,5.63
2022-11-14T06:01:14.437Z,5.60
2022-11-14T06:03:43.739Z,5.67
2022-11-14T06:06:13.140Z,8.15
2022-11-14T06:08:40.637Z,6.80
2022-11-14T06:11:16.361Z,6.15
2022-11-14T06:13:43.705Z,5.80
2022-11-14T06:16:20.693Z,5.25
2022-11-14T06:18:47.606Z,5.25
2022-11-14T06:21:16.682Z,4.55
2022-11-14T06:23:43.394Z,5.40
2022-11-14T06:26:31.264Z,6.18
2022-11-14T06:28:58.991Z,5.82
2022-11-14T06:31:26.482Z,6.55
2022-11-14T06:33:53.444Z,6.30
2022-11-14T06:36:20.453Z,6.15
2022-11-14T06:38:46.948Z,8.95
2022-11-14T06:41:13.288Z,7.57
2022-11-14T06:43:41.693Z,7.68
2022-11-14T06:46:10.025Z,7.22
2022-11-14T06:49:09.684Z,6.63
2022-11-14T06:51:44.475Z,6.13
2022-11-14T06:54:16.077Z,6.60
2022-11-14T06:56:52.726Z,5.20
2022-11-14T06:59:23.127Z,4.72
2022-11-14T07:01:49.529Z,5.03
2022-11-14T07:04:16.068Z,5.15
2022-11-14T07:06:42.496Z,5.85
2022-11-14T07:09:10.973Z,6.10
2022-11-14T07:11:37.770Z,6.28
2022-11-14T07:14:30.933Z,7.10
2022-11-14T07:16:58.072Z,7.63
2022-11-14T07:19:24.484Z,7.13
2022-11-14T07:21:57.102Z,6.88
2022-11-14T07:24:23.526Z,7.00
2022-11-14T07:26:49.937Z,7.32
2022-11-14T07:29:19.384Z,7.43
2022-11-14T07:31:45.834Z,7.90
2022-11-14T07:34:25.646Z,8.00
2022-11-14T07:36:52.069Z,8.27
2022-11-14T07:39:23.646Z,8.85
2022-11-14T07:41:50.060Z,8.25
2022-11-14T07:44:27.689Z,7.90
2022-11-14T07:46:54.088Z,9.18
2022-11-14T07:49:20.527Z,8.73
2022-11-14T07:51:46.925Z,8.10
2022-11-14T07:54:13.448Z,9.35
2022-11-14T07:56:39.918Z,9.50
2022-11-14T07:59:06.453Z,9.38
2022-11-14T08:01:32.984Z,8.30
2022-11-14T08:03:59.494Z,8.63
2022-11-14T08:06:26.200Z,8.10
2022-11-14T08:08:52.612Z,8.23
2022-11-14T08:11:38.994Z,8.30
2022-11-14T08:14:05.649Z,8.15
2022-11-14T08:16:32.169Z,7.80
2022-11-14T08:18:58.633Z,6.57
2022-11-14T08:21:25.044Z,6.70
2022-11-14T08:23:51.481Z,7.35
2022-11-14T08:26:17.884Z,7.07
2022-11-14T08:28:44.295Z,6.82
2022-11-14T08:31:18.812Z,7.50
2022-11-14T08:33:45.254Z,6.85
2022-11-14T08:36:11.788Z,6.88
2022-11-14T08:38:57.484Z,6.18
2022-11-14T08:41:27.028Z,6.55
2022-11-14T08:43:53.533Z,5.70
2022-11-14T08:46:33.341Z,5.78
2022-11-14T08:48:59.748Z,5.43
2022-11-14T08:51:26.176Z,6.72
2022-11-14T08:53:52.653Z,6.03
2022-11-14T08:56:19.112Z,5.80
2022-11-14T08:58:51.640Z,5.95
2022-11-14T09:01:18.121Z,5.32
2022-11-14T09:03:44.747Z,4.60
2022-11-14T09:06:11.298Z,4.50
2022-11-14T09:08:37.709Z,4.45
2022-11-14T09:11:09.284Z,4.97
2022-11-14T09:13:42.253Z,4.93
2022-11-14T09:16:08.635Z,5.65
2022-11-14T09:18:35.340Z,5.45
2022-11-14T09:21:03.570Z,4.97
2022-11-14T09:23:30.668Z,5.07
2022-11-14T09:25:57.438Z,4.22
2022-11-14T09:28:24.338Z,3.70
2022-11-14T09:30:50.751Z,4.50
2022-11-14T09:33:17.154Z,4.40
2022-11-14T09:35:43.602Z,4.22
2022-11-14T09:38:16.966Z,3.83
2022-11-14T09:40:59.519Z,3.95
2022-11-14T09:43:58.099Z,3.70
2022-11-14T09:46:31.112Z,3.58
2022-11-14T09:48:57.912Z,3.70
2022-11-14T09:51:50.217Z,3.38
2022-11-14T09:54:22.894Z,3.45
2022-11-14T09:56:49.734Z,3.33
2022-11-14T09:59:16.366Z,3.22
2022-11-14T10:01:57.396Z,3.30
2022-11-14T10:04:32.782Z,3.83
2022-11-14T10:07:17.504Z,2.80
2022-11-14T10:09:56.013Z,3.20
2022-11-14T10:12:40.573Z,2.78
2022-11-14T10:15:07.024Z,3.30
2022-11-14T10:17:57.062Z,3.00
2022-11-14T10:20:29.381Z,3.25
2022-11-14T10:23:10.905Z,3.20
2022-11-14T10:25:54.507Z,3.13
2022-11-14T10:29:00.124Z,3.10
2022-11-14T10:31:42.141Z,2.92
2022-11-14T10:34:14.624Z,3.08
2022-11-14T10:36:56.111Z,3.25
2022-11-14T10:39:29.288Z,3.15
2022-11-14T10:42:06.242Z,2.90
2022-11-14T10:44:42.246Z,2.85
2022-11-14T10:47:16.264Z,2.50
2022-11-14T10:49:46.768Z,2.38
2022-11-14T10:52:17.154Z,2.22
2022-11-14T10:54:50.211Z,2.00
2022-11-14T10:57:20.022Z,1.85
2022-11-14T11:00:02.519Z,1.90
2022-11-14T11:02:48.139Z,1.70
2022-11-14T11:05:17.086Z,1.42
2022-11-14T11:08:21.434Z,1.73
2022-11-14T11:11:17.312Z,0.95
2022-11-14T11:13:58.529Z,1.00
2022-11-14T11:16:26.897Z,1.00
2022-11-14T11:18:54.449Z,0.90
2022-11-14T11:21:23.324Z,1.83
2022-11-14T11:24:03.211Z,0.75
2022-11-14T11:26:31.970Z,1.17
2022-11-14T11:29:16.187Z,1.20
2022-11-14T11:32:03.047Z,1.00
2022-11-14T11:34:32.991Z,1.20
2022-11-14T11:37:20.711Z,0.90
2022-11-14T11:39:54.973Z,0.57
2022-11-14T11:45:34.658Z,0.75
2022-11-14T11:48:19.648Z,0.93
2022-11-14T11:50:47.086Z,0.80
2022-11-14T11:53:34.339Z,0.85
2022-11-14T11:56:14.589Z,1.10
2022-11-14T11:59:06.848Z,1.85
2022-11-14T12:01:33.334Z,2.15
2022-11-14T12:04:00.739Z,1.38
2022-11-14T12:06:32.178Z,5.25
2022-11-14T12:09:29.503Z,1.58
2022-11-14T12:12:14.443Z,1.15
2022-11-14T12:14:59.048Z,0.88
2022-11-14T12:17:30.518Z,1.13
2022-11-14T12:20:06.035Z,1.90
2022-11-14T12:23:11.080Z,1.63
2022-11-14T12:26:03.790Z,1.48
2022-11-14T12:28:44.398Z,1.25
2022-11-14T12:31:16.955Z,1.23
2022-11-14T12:34:05.457Z,1.48
2022-11-14T12:36:34.628Z,0.90
2022-11-14T12:39:02.176Z,1.00
2022-11-14T12:41:32.619Z,0.77
2022-11-14T12:44:17.438Z,1.60
2022-11-14T12:47:13.713Z,1.30
2022-11-14T12:49:49.639Z,0.80
2022-11-14T12:52:41.047Z,0.77
2022-11-14T12:55:30.052Z,0.80
2022-11-14T12:58:23.509Z,1.55
2022-11-14T13:00:49.909Z,0.60
2022-11-14T13:03:31.818Z,0.57
2022-11-14T13:06:09.023Z,0.47
2022-11-14T13:08:53.370Z,0.50
2022-11-14T13:11:50.709Z,0.52
2022-11-14T13:14:41.612Z,0.55
2022-11-14T13:17:43.412Z,1.17
2022-11-14T13:20:40.345Z,0.50
2022-11-14T13:23:25.433Z,0.82
2022-11-14T13:26:10.313Z,0.50
2022-11-14T13:28:53.495Z,0.40
2022-11-14T13:31:44.365Z,0.50
2022-11-14T13:34:29.080Z,1.05
2022-11-14T13:37:14.118Z,0.45
2022-11-14T13:39:52.047Z,0.63
2022-11-14T13:42:18.424Z,2.10
2022-11-14T13:45:17.475Z,1.30
2022-11-14T13:48:17.634Z,2.00
2022-11-14T13:50:49.797Z,1.20
2022-11-14T13:53:24.849Z,0.93
2022-11-14T13:55:55.664Z,1.00
2022-11-14T13:58:37.075Z,0.65
2022-11-14T14:01:31.776Z,0.82
2022-11-14T14:04:29.732Z,0.80
2022-11-14T14:07:23.755Z,1.08
2022-11-14T14:10:29.275Z,1.13
2022-11-14T14:13:10.758Z,1.10
2022-11-14T14:15:49.092Z,0.95
2022-11-14T14:18:34.173Z,0.73
2022-11-14T14:21:19.712Z,0.90
2022-11-14T14:23:57.500Z,1.48
2022-11-14T14:26:55.713Z,1.30
2022-11-14T14:29:37.537Z,1.45
2022-11-14T14:32:15.716Z,1.60
2022-11-14T14:34:42.497Z,2.00
2022-11-14T14:37:24.283Z,2.35
2022-11-14T14:40:01.886Z,1.88
2022-11-14T14:42:38.386Z,2.75
2022-11-14T14:50:21.703Z,2.30
2022-11-14T14:53:06.272Z,2.53
2022-11-14T14:55:35.009Z,2.17
2022-11-14T14:58:34.105Z,2.88
2022-11-14T15:01:03.860Z,2.25
2022-11-14T15:03:37.884Z,1.48
2022-11-14T15:06:17.759Z,1.40
2022-11-14T15:08:45.930Z,1.10
2022-11-14T15:11:15.253Z,1.60
2022-11-14T15:13:42.688Z,1.35
2022-11-14T15:16:16.916Z,1.45
2022-11-14T15:18:44.432Z,1.75
2022-11-14T15:21:23.138Z,1.80
2022-11-14T15:24:18.750Z,1.50
2022-11-14T15:26:52.104Z,2.28
2022-11-14T15:29:19.723Z,2.10
2022-11-14T15:31:52.898Z,1.77
2022-11-14T15:34:26.344Z,2.00
2022-11-14T15:37:19.318Z,2.40
2022-11-14T15:39:47.463Z,2.67
2022-11-14T15:42:28.203Z,2.85
2022-11-14T15:44:55.568Z,3.13
2022-11-14T15:47:28.566Z,4.15
2022-11-14T15:50:25.901Z,2.83
2022-11-14T15:53:23.396Z,3.40
2022-11-14T15:58:32.857Z,4.10
2022-11-14T16:01:03.758Z,2.60
2022-11-14T16:03:30.396Z,2.40
2022-11-14T16:05:57.007Z,2.58
2022-11-14T16:08:23.445Z,2.78
2022-11-14T16:10:49.855Z,2.60
2022-11-14T16:13:16.307Z,5.30
2022-11-14T16:15:42.809Z,4.22
2022-11-14T16:18:12.123Z,5.07
2022-11-14T16:20:39.659Z,4.72
2022-11-14T16:23:13.942Z,4.18
2022-11-14T16:25:40.432Z,3.38
2022-11-14T16:28:06.898Z,3.53
2022-11-14T16:30:33.348Z,3.80
2022-11-14T16:32:59.841Z,3.13
2022-11-14T16:35:27.602Z,3.63
2022-11-14T16:37:57.055Z,4.50
2022-11-14T16:40:27.807Z,4.63
2022-11-14T16:42:55.872Z,4.10
2022-11-14T16:45:22.779Z,5.97
2022-11-14T16:47:49.912Z,6.65
2022-11-14T16:50:17.283Z,6.25
2022-11-14T16:52:43.739Z,9.20
2022-11-14T16:55:11.704Z,7.65
2022-11-14T16:57:39.077Z,5.95
2022-11-14T17:00:08.650Z,5.90
2022-11-14T17:02:35.064Z,5.13
2022-11-14T17:05:01.493Z,4.88
2022-11-14T17:07:32.600Z,5.03
2022-11-14T17:10:02.511Z,5.05
2022-11-14T17:12:28.985Z,6.00
2022-11-14T17:14:55.447Z,3.80
2022-11-14T17:17:21.925Z,3.50
2022-11-14T17:19:48.619Z,3.60
2022-11-14T17:22:16.470Z,4.30
2022-11-14T17:24:47.065Z,4.15
2022-11-14T17:27:13.518Z,4.60
2022-11-14T17:29:40.038Z,3.55
2022-11-14T17:32:06.729Z,4.05
2022-11-14T17:34:33.188Z,4.10
2022-11-14T17:36:59.610Z,4.30
2022-11-14T17:39:26.304Z,4.35
2022-11-14T17:41:53.171Z,4.55
2022-11-14T17:44:19.639Z,4.70
2022-11-14T17:46:47.346Z,5.00
2022-11-14T17:49:13.761Z,6.25
2022-11-14T17:51:40.190Z,7.38
2022-11-14T17:54:06.696Z,6.95
2022-11-14T17:56:33.222Z,6.65
2022-11-14T17:58:59.645Z,6.68
2022-11-14T18:01:26.329Z,6.35
2022-11-14T18:03:53.005Z,6.63
2022-11-14T18:06:21.347Z,7.53
2022-11-14T18:08:48.538Z,9.80
2022-11-14T18:11:17.206Z,7.25
2022-11-14T18:13:44.098Z,9.50
2022-11-14T18:16:16.682Z,9.15
2022-11-14T18:18:43.372Z,13.10
2022-11-14T18:21:14.286Z,12.52
2022-11-14T18:24:02.479Z,10.68
2022-11-14T18:26:29.209Z,9.50
2022-11-14T18:29:03.198Z,10.50
2022-11-14T18:31:30.210Z,9.68
2022-11-14T18:34:02.941Z,10.07
2022-11-14T18:36:29.473Z,9.27
2022-11-14T18:38:56.985Z,9.68
2022-11-14T18:41:24.496Z,8.88
2022-11-14T18:43:55.435Z,8.50
2022-11-14T18:46:24.405Z,7.00
2022-11-14T18:48:57.103Z,6.20
2022-11-14T18:51:27.405Z,6.05
2022-11-14T18:54:10.249Z,6.00
2022-11-14T18:56:36.735Z,6.07
2022-11-14T18:59:03.165Z,5.45
2022-11-14T19:01:32.058Z,4.85
2022-11-14T19:04:04.056Z,5.57
2022-11-14T19:06:36.508Z,5.05
2022-11-14T19:09:11.325Z,5.13
2022-11-14T19:11:57.399Z,4.90
2022-11-14T19:14:24.886Z,5.63
2022-11-14T19:16:51.325Z,5.57
2022-11-14T19:19:18.931Z,5.57
2022-11-14T19:21:50.339Z,6.18
2022-11-14T19:24:17.423Z,6.10
2022-11-14T19:26:44.470Z,6.57
2022-11-14T19:29:13.324Z,6.72
2022-11-14T19:32:03.880Z,7.45
2022-11-14T19:34:32.416Z,7.07
2022-11-14T19:37:00.672Z,7.63
2022-11-14T19:39:35.697Z,7.55
2022-11-14T19:42:02.138Z,9.10
2022-11-14T19:44:28.560Z,10.00
2022-11-14T19:46:55.047Z,9.90
2022-11-14T19:49:21.630Z,9.20
2022-11-14T19:51:48.836Z,8.77
2022-11-14T19:54:15.620Z,10.35
2022-11-14T19:56:42.071Z,11.57
2022-11-14T19:59:28.736Z,12.55
2022-11-14T20:01:55.696Z,11.00
2022-11-14T20:04:24.225Z,11.40
2022-11-14T20:06:52.892Z,11.27
2022-11-14T20:09:32.801Z,11.15
2022-11-14T20:11:59.296Z,10.38
2022-11-14T20:14:25.742Z,11.40
2022-11-14T20:16:52.363Z,11.30
2022-11-14T20:19:20.911Z,11.55
2022-11-14T20:21:48.839Z,12.15
2022-11-14T20:24:21.306Z,10.98
2022-11-14T20:26:48.984Z,12.27
2022-11-14T20:29:15.392Z,11.18
2022-11-14T20:31:41.982Z,11.15
2022-11-14T20:34:10.466Z,11.27
2022-11-14T20:37:08.845Z,11.88
2022-11-14T20:39:23.326Z,12.00
2022-11-14T20:41:50.062Z,10.95
2022-11-14T20:44:18.828Z,11.18
2022-11-14T20:46:51.374Z,15.02
2022-11-14T20:49:22.046Z,18.35
2022-11-14T20:51:49.180Z,12.95
2022-11-14T20:54:16.363Z,12.23
2022-11-14T20:56:42.787Z,12.27
2022-11-14T20:59:14.394Z,11.40
2022-11-14T21:01:43.904Z,11.73
2022-11-14T21:04:10.780Z,11.65
2022-11-14T21:06:56.814Z,12.70
2022-11-14T21:09:23.294Z,11.50
2022-11-14T21:11:49.762Z,12.70
2022-11-14T21:14:16.294Z,11.27
2022-11-14T21:16:42.810Z,11.38
2022-11-14T21:19:12.248Z,10.88
2022-11-14T21:21:38.950Z,11.32
2022-11-14T21:24:06.192Z,11.57
2022-11-14T21:26:39.206Z,11.15
2022-11-14T21:29:10.051Z,10.23
2022-11-14T21:31:39.315Z,10.32
2022-11-14T21:34:16.721Z,11.45
2022-11-14T21:36:45.394Z,11.57
2022-11-14T21:39:16.731Z,12.00
2022-11-14T21:41:45.202Z,11.70
2022-11-14T21:44:14.448Z,11.50
2022-11-14T21:46:41.366Z,12.13
2022-11-14T21:49:14.416Z,11.70
2022-11-14T21:51:41.024Z,12.07
2022-11-14T21:54:08.520Z,11.48
2022-11-14T21:56:37.029Z,10.95
2022-11-14T21:59:15.578Z,10.80
2022-11-14T22:02:06.657Z,10.63
2022-11-14T22:04:39.510Z,10.80
2022-11-14T22:07:08.098Z,10.05
2022-11-14T22:09:45.092Z,9.90
2022-11-14T22:12:12.003Z,9.90
2022-11-14T22:14:38.466Z,10.15
2022-11-14T22:17:04.898Z,9.70
2022-11-14T22:19:31.339Z,9.88
2022-11-14T22:21:57.903Z,9.25
2022-11-14T22:24:26.382Z,7.82
2022-11-14T22:26:52.831Z,8.65
2022-11-14T22:29:19.326Z,9.45
2022-11-14T22:31:45.807Z,9.05
2022-11-14T22:34:12.375Z,8.75
2022-11-14T22:36:39.024Z,8.55
2022-11-14T22:39:05.608Z,7.95
2022-11-14T22:41:33.712Z,7.90
2022-11-14T22:44:01.315Z,8.10
2022-11-14T22:46:28.608Z,8.43
2022-11-14T22:48:55.644Z,8.15
2022-11-14T22:51:24.291Z,8.25
2022-11-14T22:53:52.936Z,7.78
2022-11-14T22:56:28.179Z,7.85
2022-11-14T22:58:55.294Z,7.57
2022-11-14T23:01:29.570Z,8.60
2022-11-14T23:03:58.613Z,7.50
2022-11-14T23:06:25.935Z,8.13
2022-11-14T23:08:53.357Z,7.80
2022-11-14T23:11:25.673Z,7.60
2022-11-14T23:13:54.212Z,7.70
2022-11-14T23:16:29.184Z,7.20
2022-11-14T23:18:57.586Z,7.93
2022-11-14T23:21:33.371Z,7.43
2022-11-14T23:24:05.227Z,7.28
2022-11-14T23:26:32.079Z,7.15
2022-11-14T23:28:59.199Z,6.63
2022-11-14T23:31:25.760Z,6.93
2022-11-14T23:33:54.570Z,6.18
2022-11-14T23:36:21.361Z,7.13
2022-11-14T23:38:48.140Z,6.88
2022-11-14T23:41:17.929Z,6.45
2022-11-14T23:43:48.626Z,6.70
2022-11-14T23:46:17.125Z,6.32
2022-11-14T23:48:43.692Z,6.47
2022-11-14T23:51:10.186Z,7.05
2022-11-14T23:53:36.708Z,6.65
2022-11-14T23:56:03.489Z,7.07
2022-11-14T23:58:30.437Z,6.80
